sensor_id;sensor_type;location;lat;lon;timestamp;temperature;humidity
10572;DHT22;5334;48.928;12.704;2022-07-25T00:00:07;22.40;97.10
10572;DHT22;5334;48.928;12.704;2022-07-25T00:02:36;22.30;97.70
10572;DHT22;5334;48.928;12.704;2022-07-25T00:05:02;22.20;97.80
10572;DHT22;5334;48.928;12.704;2022-07-25T00:07:28;22.10;98.10
10572;DHT22;5334;48.928;12.704;2022-07-25T00:09:54;22.10;98.20
10572;DHT22;5334;48.928;12.704;2022-07-25T00:12:20;22.10;98.60
10572;DHT22;5334;48.928;12.704;2022-07-25T00:14:46;22.00;98.60
10572;DHT22;5334;48.928;12.704;2022-07-25T00:17:12;22.00;98.40
10572;DHT22;5334;48.928;12.704;2022-07-25T00:19:39;22.00;98.40
10572;DHT22;5334;48.928;12.704;2022-07-25T00:22:04;22.10;98.30
10572;DHT22;5334;48.928;12.704;2022-07-25T00:24:30;22.10;98.20
10572;DHT22;5334;48.928;12.704;2022-07-25T00:26:56;22.20;98.20
10572;DHT22;5334;48.928;12.704;2022-07-25T00:29:21;22.20;98.10
10572;DHT22;5334;48.928;12.704;2022-07-25T00:31:47;22.30;97.90
10572;DHT22;5334;48.928;12.704;2022-07-25T00:34:13;22.30;97.80
10572;DHT22;5334;48.928;12.704;2022-07-25T00:36:38;22.40;97.80
10572;DHT22;5334;48.928;12.704;2022-07-25T00:39:04;22.40;97.70
10572;DHT22;5334;48.928;12.704;2022-07-25T00:41:30;22.40;97.50
10572;DHT22;5334;48.928;12.704;2022-07-25T00:43:55;22.40;97.50
10572;DHT22;5334;48.928;12.704;2022-07-25T00:46:21;22.40;97.50
10572;DHT22;5334;48.928;12.704;2022-07-25T00:48:47;22.40;97.50
10572;DHT22;5334;48.928;12.704;2022-07-25T00:51:14;22.50;97.60
10572;DHT22;5334;48.928;12.704;2022-07-25T00:53:41;22.40;97.60
10572;DHT22;5334;48.928;12.704;2022-07-25T00:56:07;22.30;97.90
10572;DHT22;5334;48.928;12.704;2022-07-25T00:58:33;22.20;98.00
10572;DHT22;5334;48.928;12.704;2022-07-25T01:00:59;22.10;98.40
10572;DHT22;5334;48.928;12.704;2022-07-25T01:03:26;22.00;98.50
10572;DHT22;5334;48.928;12.704;2022-07-25T01:05:51;21.90;98.40
10572;DHT22;5334;48.928;12.704;2022-07-25T01:08:18;21.80;98.80
10572;DHT22;5334;48.928;12.704;2022-07-25T01:10:45;21.50;99.20
10572;DHT22;5334;48.928;12.704;2022-07-25T01:15:37;20.80;99.90
10572;DHT22;5334;48.928;12.704;2022-07-25T01:18:03;20.60;99.90
10572;DHT22;5334;48.928;12.704;2022-07-25T01:20:30;20.50;99.90
10572;DHT22;5334;48.928;12.704;2022-07-25T01:22:56;20.40;99.90
10572;DHT22;5334;48.928;12.704;2022-07-25T01:25:22;20.50;99.90
10572;DHT22;5334;48.928;12.704;2022-07-25T01:27:49;20.50;99.90
10572;DHT22;5334;48.928;12.704;2022-07-25T01:30:16;20.50;99.90
10572;DHT22;5334;48.928;12.704;2022-07-25T01:32:43;20.60;99.90
10572;DHT22;5334;48.928;12.704;2022-07-25T01:35:09;20.60;99.90
10572;DHT22;5334;48.928;12.704;2022-07-25T01:37:35;20.70;99.90
10572;DHT22;5334;48.928;12.704;2022-07-25T01:40:03;20.70;99.90
10572;DHT22;5334;48.928;12.704;2022-07-25T01:42:29;20.70;99.90
10572;DHT22;5334;48.928;12.704;2022-07-25T01:44:55;20.70;99.90
10572;DHT22;5334;48.928;12.704;2022-07-25T01:47:20;20.70;99.90
10572;DHT22;5334;48.928;12.704;2022-07-25T01:49:46;20.60;99.90
10572;DHT22;5334;48.928;12.704;2022-07-25T01:52:12;20.60;99.90
10572;DHT22;5334;48.928;12.704;2022-07-25T01:54:39;20.60;99.90
10572;DHT22;5334;48.928;12.704;2022-07-25T01:57:05;20.50;99.90
10572;DHT22;5334;48.928;12.704;2022-07-25T01:59:31;20.50;99.90
10572;DHT22;5334;48.928;12.704;2022-07-25T02:01:57;20.50;99.90
10572;DHT22;5334;48.928;12.704;2022-07-25T02:04:23;20.50;99.90
10572;DHT22;5334;48.928;12.704;2022-07-25T02:06:49;20.40;99.90
10572;DHT22;5334;48.928;12.704;2022-07-25T02:09:14;20.40;99.90
10572;DHT22;5334;48.928;12.704;2022-07-25T02:11:40;20.30;99.90
10572;DHT22;5334;48.928;12.704;2022-07-25T02:14:06;20.30;99.90
10572;DHT22;5334;48.928;12.704;2022-07-25T02:16:32;20.30;99.90
10572;DHT22;5334;48.928;12.704;2022-07-25T02:18:57;20.30;99.90
10572;DHT22;5334;48.928;12.704;2022-07-25T02:21:24;20.20;99.90
10572;DHT22;5334;48.928;12.704;2022-07-25T02:23:50;20.20;99.90
10572;DHT22;5334;48.928;12.704;2022-07-25T02:26:16;20.20;99.90
10572;DHT22;5334;48.928;12.704;2022-07-25T02:28:42;20.20;99.90
10572;DHT22;5334;48.928;12.704;2022-07-25T02:31:08;20.10;99.90
10572;DHT22;5334;48.928;12.704;2022-07-25T02:33:34;20.20;99.90
10572;DHT22;5334;48.928;12.704;2022-07-25T02:36:00;20.20;99.90
10572;DHT22;5334;48.928;12.704;2022-07-25T02:38:25;20.20;99.90
10572;DHT22;5334;48.928;12.704;2022-07-25T02:40:51;20.20;99.90
10572;DHT22;5334;48.928;12.704;2022-07-25T02:43:18;20.20;99.90
10572;DHT22;5334;48.928;12.704;2022-07-25T02:45:45;20.20;99.90
10572;DHT22;5334;48.928;12.704;2022-07-25T02:48:11;20.30;99.90
10572;DHT22;5334;48.928;12.704;2022-07-25T02:50:38;20.30;99.90
10572;DHT22;5334;48.928;12.704;2022-07-25T02:53:04;20.30;99.90
10572;DHT22;5334;48.928;12.704;2022-07-25T02:55:30;20.20;99.90
10572;DHT22;5334;48.928;12.704;2022-07-25T02:57:56;20.10;99.90
10572;DHT22;5334;48.928;12.704;2022-07-25T03:00:22;20.00;99.90
10572;DHT22;5334;48.928;12.704;2022-07-25T03:02:48;20.00;99.90
10572;DHT22;5334;48.928;12.704;2022-07-25T03:05:14;20.00;99.90
10572;DHT22;5334;48.928;12.704;2022-07-25T03:07:42;19.90;99.90
10572;DHT22;5334;48.928;12.704;2022-07-25T03:10:09;19.90;99.90
10572;DHT22;5334;48.928;12.704;2022-07-25T03:12:36;19.80;99.90
10572;DHT22;5334;48.928;12.704;2022-07-25T03:15:03;19.70;99.90
10572;DHT22;5334;48.928;12.704;2022-07-25T03:19:55;19.60;99.90
10572;DHT22;5334;48.928;12.704;2022-07-25T03:22:22;19.60;99.90
10572;DHT22;5334;48.928;12.704;2022-07-25T03:24:48;19.60;99.90
10572;DHT22;5334;48.928;12.704;2022-07-25T03:27:14;19.60;99.90
10572;DHT22;5334;48.928;12.704;2022-07-25T03:29:40;19.60;99.90
10572;DHT22;5334;48.928;12.704;2022-07-25T03:32:06;19.60;99.90
10572;DHT22;5334;48.928;12.704;2022-07-25T03:34:32;19.60;99.90
10572;DHT22;5334;48.928;12.704;2022-07-25T03:36:58;19.60;99.90
10572;DHT22;5334;48.928;12.704;2022-07-25T03:39:25;19.60;99.90
10572;DHT22;5334;48.928;12.704;2022-07-25T03:41:50;19.60;99.90
10572;DHT22;5334;48.928;12.704;2022-07-25T03:44:18;19.60;99.90
10572;DHT22;5334;48.928;12.704;2022-07-25T03:46:43;19.60;99.90
10572;DHT22;5334;48.928;12.704;2022-07-25T03:49:09;19.70;99.90
10572;DHT22;5334;48.928;12.704;2022-07-25T03:51:35;19.70;99.90
10572;DHT22;5334;48.928;12.704;2022-07-25T03:54:01;19.70;99.90
10572;DHT22;5334;48.928;12.704;2022-07-25T03:56:39;19.60;99.90
10572;DHT22;5334;48.928;12.704;2022-07-25T03:59:06;19.60;99.90
10572;DHT22;5334;48.928;12.704;2022-07-25T04:01:32;19.70;99.90
10572;DHT22;5334;48.928;12.704;2022-07-25T04:03:58;19.80;99.90
10572;DHT22;5334;48.928;12.704;2022-07-25T04:06:24;19.90;99.90
10572;DHT22;5334;48.928;12.704;2022-07-25T04:08:51;19.90;99.90
10572;DHT22;5334;48.928;12.704;2022-07-25T04:11:17;19.90;99.90
10572;DHT22;5334;48.928;12.704;2022-07-25T04:13:42;19.80;99.90
10572;DHT22;5334;48.928;12.704;2022-07-25T04:16:08;19.70;99.90
10572;DHT22;5334;48.928;12.704;2022-07-25T04:18:34;19.50;99.90
10572;DHT22;5334;48.928;12.704;2022-07-25T04:21:00;19.40;99.90
10572;DHT22;5334;48.928;12.704;2022-07-25T04:23:26;19.30;99.90
10572;DHT22;5334;48.928;12.704;2022-07-25T04:25:53;19.10;99.90
10572;DHT22;5334;48.928;12.704;2022-07-25T04:30:45;19.00;99.90
10572;DHT22;5334;48.928;12.704;2022-07-25T04:33:12;19.20;99.90
10572;DHT22;5334;48.928;12.704;2022-07-25T04:35:38;19.40;99.90
10572;DHT22;5334;48.928;12.704;2022-07-25T04:38:04;19.60;99.90
10572;DHT22;5334;48.928;12.704;2022-07-25T04:40:30;19.80;99.90
10572;DHT22;5334;48.928;12.704;2022-07-25T04:42:56;19.90;99.90
10572;DHT22;5334;48.928;12.704;2022-07-25T04:45:22;20.10;99.90
10572;DHT22;5334;48.928;12.704;2022-07-25T04:47:48;20.20;99.90
10572;DHT22;5334;48.928;12.704;2022-07-25T04:50:14;20.30;99.90
10572;DHT22;5334;48.928;12.704;2022-07-25T04:52:39;20.40;99.90
10572;DHT22;5334;48.928;12.704;2022-07-25T04:55:05;20.60;99.90
10572;DHT22;5334;48.928;12.704;2022-07-25T04:57:31;20.90;99.90
10572;DHT22;5334;48.928;12.704;2022-07-25T04:59:57;21.20;99.90
10572;DHT22;5334;48.928;12.704;2022-07-25T05:02:24;21.40;99.90
10572;DHT22;5334;48.928;12.704;2022-07-25T05:04:50;21.70;99.90
10572;DHT22;5334;48.928;12.704;2022-07-25T05:07:16;21.90;99.90
10572;DHT22;5334;48.928;12.704;2022-07-25T05:09:42;22.10;99.90
10572;DHT22;5334;48.928;12.704;2022-07-25T05:12:08;22.40;99.90
10572;DHT22;5334;48.928;12.704;2022-07-25T05:14:33;22.60;99.90
10572;DHT22;5334;48.928;12.704;2022-07-25T05:16:59;22.80;99.90
10572;DHT22;5334;48.928;12.704;2022-07-25T05:19:25;23.10;99.90
10572;DHT22;5334;48.928;12.704;2022-07-25T05:21:50;23.40;99.90
10572;DHT22;5334;48.928;12.704;2022-07-25T05:24:16;23.20;99.90
10572;DHT22;5334;48.928;12.704;2022-07-25T05:26:42;23.10;99.90
10572;DHT22;5334;48.928;12.704;2022-07-25T05:29:08;23.10;99.90
10572;DHT22;5334;48.928;12.704;2022-07-25T05:31:34;23.20;99.90
10572;DHT22;5334;48.928;12.704;2022-07-25T05:34:00;23.40;99.90
10572;DHT22;5334;48.928;12.704;2022-07-25T05:36:26;23.70;99.90
10572;DHT22;5334;48.928;12.704;2022-07-25T05:38:51;23.90;99.90
10572;DHT22;5334;48.928;12.704;2022-07-25T05:41:18;24.10;99.90
10572;DHT22;5334;48.928;12.704;2022-07-25T05:43:44;24.40;99.90
10572;DHT22;5334;48.928;12.704;2022-07-25T05:46:12;24.50;99.90
10572;DHT22;5334;48.928;12.704;2022-07-25T05:48:37;24.50;99.90
10572;DHT22;5334;48.928;12.704;2022-07-25T05:51:03;24.50;99.90
10572;DHT22;5334;48.928;12.704;2022-07-25T05:53:29;24.70;99.90
10572;DHT22;5334;48.928;12.704;2022-07-25T05:55:54;25.00;99.90
10572;DHT22;5334;48.928;12.704;2022-07-25T05:58:20;25.20;99.90
10572;DHT22;5334;48.928;12.704;2022-07-25T06:00:46;25.40;99.90
10572;DHT22;5334;48.928;12.704;2022-07-25T06:03:11;25.50;99.90
10572;DHT22;5334;48.928;12.704;2022-07-25T06:05:37;25.60;99.90
10572;DHT22;5334;48.928;12.704;2022-07-25T06:08:03;25.80;99.90
10572;DHT22;5334;48.928;12.704;2022-07-25T06:10:28;25.90;99.90
10572;DHT22;5334;48.928;12.704;2022-07-25T06:12:54;25.90;99.90
10572;DHT22;5334;48.928;12.704;2022-07-25T06:15:20;26.10;99.50
10572;DHT22;5334;48.928;12.704;2022-07-25T06:17:45;26.10;99.90
10572;DHT22;5334;48.928;12.704;2022-07-25T06:20:11;26.30;99.90
10572;DHT22;5334;48.928;12.704;2022-07-25T06:22:38;26.30;99.90
10572;DHT22;5334;48.928;12.704;2022-07-25T06:25:05;26.30;99.90
10572;DHT22;5334;48.928;12.704;2022-07-25T06:27:31;26.30;99.80
10572;DHT22;5334;48.928;12.704;2022-07-25T06:32:22;26.80;98.80
10572;DHT22;5334;48.928;12.704;2022-07-25T06:34:48;27.00;98.40
10572;DHT22;5334;48.928;12.704;2022-07-25T06:37:14;27.10;98.60
10572;DHT22;5334;48.928;12.704;2022-07-25T06:39:40;27.00;98.00
10572;DHT22;5334;48.928;12.704;2022-07-25T06:42:06;27.00;98.30
10572;DHT22;5334;48.928;12.704;2022-07-25T06:44:32;27.00;98.00
10572;DHT22;5334;48.928;12.704;2022-07-25T06:46:59;27.10;98.10
10572;DHT22;5334;48.928;12.704;2022-07-25T06:49:25;27.10;97.90
10572;DHT22;5334;48.928;12.704;2022-07-25T06:51:51;27.30;96.80
10572;DHT22;5334;48.928;12.704;2022-07-25T06:54:17;27.40;97.00
10572;DHT22;5334;48.928;12.704;2022-07-25T06:56:43;27.50;96.80
10572;DHT22;5334;48.928;12.704;2022-07-25T06:59:09;27.50;96.50
10572;DHT22;5334;48.928;12.704;2022-07-25T07:01:35;27.60;96.00
10572;DHT22;5334;48.928;12.704;2022-07-25T07:04:01;26.70;95.90
10572;DHT22;5334;48.928;12.704;2022-07-25T07:06:27;27.60;95.80
10572;DHT22;5334;48.928;12.704;2022-07-25T07:08:53;27.50;95.60
10572;DHT22;5334;48.928;12.704;2022-07-25T07:11:18;27.50;96.20
10572;DHT22;5334;48.928;12.704;2022-07-25T07:13:44;27.50;95.80
10572;DHT22;5334;48.928;12.704;2022-07-25T07:16:10;27.50;95.20
10572;DHT22;5334;48.928;12.704;2022-07-25T07:18:36;27.50;95.50
10572;DHT22;5334;48.928;12.704;2022-07-25T07:21:03;27.50;95.70
10572;DHT22;5334;48.928;12.704;2022-07-25T07:23:29;27.50;96.10
10572;DHT22;5334;48.928;12.704;2022-07-25T07:28:20;27.90;95.50
10572;DHT22;5334;48.928;12.704;2022-07-25T07:30:46;28.20;94.30
10572;DHT22;5334;48.928;12.704;2022-07-25T07:33:12;28.30;94.50
10572;DHT22;5334;48.928;12.704;2022-07-25T07:35:38;28.40;94.40
10572;DHT22;5334;48.928;12.704;2022-07-25T07:38:05;28.50;94.80
10572;DHT22;5334;48.928;12.704;2022-07-25T07:40:30;28.60;94.20
10572;DHT22;5334;48.928;12.704;2022-07-25T07:42:56;28.70;92.50
10572;DHT22;5334;48.928;12.704;2022-07-25T07:45:26;28.90;92.00
10572;DHT22;5334;48.928;12.704;2022-07-25T07:47:53;28.90;92.20
10572;DHT22;5334;48.928;12.704;2022-07-25T07:50:22;29.00;91.10
10572;DHT22;5334;48.928;12.704;2022-07-25T07:52:48;28.80;91.00
10572;DHT22;5334;48.928;12.704;2022-07-25T07:55:14;28.80;91.10
10572;DHT22;5334;48.928;12.704;2022-07-25T07:57:59;28.90;91.20
10572;DHT22;5334;48.928;12.704;2022-07-25T08:00:26;29.30;90.70
10572;DHT22;5334;48.928;12.704;2022-07-25T08:02:53;29.60;90.30
10572;DHT22;5334;48.928;12.704;2022-07-25T08:05:24;29.60;87.20
10572;DHT22;5334;48.928;12.704;2022-07-25T08:07:51;29.30;87.90
10572;DHT22;5334;48.928;12.704;2022-07-25T08:10:21;29.20;88.10
10572;DHT22;5334;48.928;12.704;2022-07-25T08:12:47;29.40;87.50
10572;DHT22;5334;48.928;12.704;2022-07-25T08:15:14;29.60;88.30
10572;DHT22;5334;48.928;12.704;2022-07-25T08:17:40;29.90;87.20
10572;DHT22;5334;48.928;12.704;2022-07-25T08:20:06;29.80;86.00
10572;DHT22;5334;48.928;12.704;2022-07-25T08:22:50;29.70;85.40
10572;DHT22;5334;48.928;12.704;2022-07-25T08:25:18;29.50;86.20
10572;DHT22;5334;48.928;12.704;2022-07-25T08:27:44;29.60;86.40
10572;DHT22;5334;48.928;12.704;2022-07-25T08:30:12;29.80;86.30
10572;DHT22;5334;48.928;12.704;2022-07-25T08:32:55;30.10;86.00
10572;DHT22;5334;48.928;12.704;2022-07-25T08:35:22;30.30;85.80
10572;DHT22;5334;48.928;12.704;2022-07-25T08:37:49;30.50;85.60
10572;DHT22;5334;48.928;12.704;2022-07-25T08:40:17;30.40;84.60
10572;DHT22;5334;48.928;12.704;2022-07-25T08:42:44;30.40;85.50
10572;DHT22;5334;48.928;12.704;2022-07-25T08:45:11;30.40;84.10
10572;DHT22;5334;48.928;12.704;2022-07-25T08:47:45;30.30;84.20
10572;DHT22;5334;48.928;12.704;2022-07-25T08:50:14;30.40;85.10
10572;DHT22;5334;48.928;12.704;2022-07-25T08:52:42;30.60;85.10
10572;DHT22;5334;48.928;12.704;2022-07-25T08:55:10;30.90;84.50
10572;DHT22;5334;48.928;12.704;2022-07-25T08:57:39;30.80;83.90
10572;DHT22;5334;48.928;12.704;2022-07-25T09:00:09;30.70;83.70
10572;DHT22;5334;48.928;12.704;2022-07-25T09:02:39;30.80;85.30
10572;DHT22;5334;48.928;12.704;2022-07-25T09:05:05;30.80;84.90
10572;DHT22;5334;48.928;12.704;2022-07-25T09:07:31;31.20;84.90
10572;DHT22;5334;48.928;12.704;2022-07-25T09:09:57;31.40;83.90
10572;DHT22;5334;48.928;12.704;2022-07-25T09:12:27;31.40;83.20
10572;DHT22;5334;48.928;12.704;2022-07-25T09:14:52;31.50;83.30
10572;DHT22;5334;48.928;12.704;2022-07-25T09:17:18;31.40;82.20
10572;DHT22;5334;48.928;12.704;2022-07-25T09:19:52;31.30;82.30
10572;DHT22;5334;48.928;12.704;2022-07-25T09:22:18;31.30;81.80
10572;DHT22;5334;48.928;12.704;2022-07-25T09:24:44;31.10;81.80
10572;DHT22;5334;48.928;12.704;2022-07-25T09:27:10;31.10;83.00
10572;DHT22;5334;48.928;12.704;2022-07-25T09:29:38;31.20;82.80
10572;DHT22;5334;48.928;12.704;2022-07-25T09:34:41;32.00;81.90
10572;DHT22;5334;48.928;12.704;2022-07-25T09:37:10;32.10;81.70
10572;DHT22;5334;48.928;12.704;2022-07-25T09:39:47;32.40;81.50
10572;DHT22;5334;48.928;12.704;2022-07-25T09:42:31;32.50;99.60
10572;DHT22;5334;48.928;12.704;2022-07-25T09:45:10;32.70;79.90
10572;DHT22;5334;48.928;12.704;2022-07-25T09:47:54;32.80;80.30
10572;DHT22;5334;48.928;12.704;2022-07-25T09:50:21;33.00;79.30
10572;DHT22;5334;48.928;12.704;2022-07-25T09:52:50;32.90;77.70
10572;DHT22;5334;48.928;12.704;2022-07-25T09:55:15;32.70;78.20
10572;DHT22;5334;48.928;12.704;2022-07-25T09:57:41;32.70;78.70
10572;DHT22;5334;48.928;12.704;2022-07-25T10:00:10;32.60;78.20
10572;DHT22;5334;48.928;12.704;2022-07-25T10:07:54;32.40;79.40
10572;DHT22;5334;48.928;12.704;2022-07-25T10:10:26;32.60;79.40
10572;DHT22;5334;48.928;12.704;2022-07-25T10:13:04;32.60;78.80
10572;DHT22;5334;48.928;12.704;2022-07-25T10:15:49;32.70;78.20
10572;DHT22;5334;48.928;12.704;2022-07-25T10:18:21;33.00;78.40
10572;DHT22;5334;48.928;12.704;2022-07-25T10:20:48;33.20;76.90
10572;DHT22;5334;48.928;12.704;2022-07-25T10:23:24;33.10;76.80
10572;DHT22;5334;48.928;12.704;2022-07-25T10:28:34;33.10;76.40
10572;DHT22;5334;48.928;12.704;2022-07-25T10:31:00;33.00;76.70
10572;DHT22;5334;48.928;12.704;2022-07-25T10:33:26;33.20;76.80
10572;DHT22;5334;48.928;12.704;2022-07-25T10:35:52;33.20;75.50
10572;DHT22;5334;48.928;12.704;2022-07-25T10:38:23;33.00;74.70
10572;DHT22;5334;48.928;12.704;2022-07-25T10:40:49;33.20;76.10
10572;DHT22;5334;48.928;12.704;2022-07-25T10:43:20;33.60;75.80
10572;DHT22;5334;48.928;12.704;2022-07-25T10:45:51;33.80;76.10
10572;DHT22;5334;48.928;12.704;2022-07-25T10:48:25;34.00;74.70
10572;DHT22;5334;48.928;12.704;2022-07-25T10:50:58;33.90;74.30
10572;DHT22;5334;48.928;12.704;2022-07-25T10:53:43;34.00;75.20
10572;DHT22;5334;48.928;12.704;2022-07-25T10:56:18;34.20;73.40
10572;DHT22;5334;48.928;12.704;2022-07-25T10:58:46;34.20;73.10
10572;DHT22;5334;48.928;12.704;2022-07-25T11:01:12;34.10;74.00
10572;DHT22;5334;48.928;12.704;2022-07-25T11:03:40;34.30;73.50
10572;DHT22;5334;48.928;12.704;2022-07-25T11:06:10;34.40;73.00
10572;DHT22;5334;48.928;12.704;2022-07-25T11:08:35;34.40;73.10
10572;DHT22;5334;48.928;12.704;2022-07-25T11:11:01;34.40;72.40
10572;DHT22;5334;48.928;12.704;2022-07-25T11:13:27;34.60;72.90
10572;DHT22;5334;48.928;12.704;2022-07-25T11:15:57;34.70;72.20
10572;DHT22;5334;48.928;12.704;2022-07-25T11:18:39;34.40;72.30
10572;DHT22;5334;48.928;12.704;2022-07-25T11:21:06;34.20;71.70
10572;DHT22;5334;48.928;12.704;2022-07-25T11:23:35;34.30;71.60
10572;DHT22;5334;48.928;12.704;2022-07-25T11:26:09;34.40;71.60
10572;DHT22;5334;48.928;12.704;2022-07-25T11:28:45;34.50;71.80
10572;DHT22;5334;48.928;12.704;2022-07-25T11:31:12;34.40;71.20
10572;DHT22;5334;48.928;12.704;2022-07-25T11:33:40;34.30;70.70
10572;DHT22;5334;48.928;12.704;2022-07-25T11:36:06;34.30;70.60
10572;DHT22;5334;48.928;12.704;2022-07-25T11:38:33;34.40;71.40
10572;DHT22;5334;48.928;12.704;2022-07-25T11:40:59;34.70;70.20
10572;DHT22;5334;48.928;12.704;2022-07-25T11:43:25;35.00;69.80
10572;DHT22;5334;48.928;12.704;2022-07-25T11:45:59;35.10;68.10
10572;DHT22;5334;48.928;12.704;2022-07-25T11:48:36;34.80;69.70
10572;DHT22;5334;48.928;12.704;2022-07-25T11:51:15;34.60;69.50
10572;DHT22;5334;48.928;12.704;2022-07-25T11:53:48;34.30;69.90
10572;DHT22;5334;48.928;12.704;2022-07-25T11:56:16;34.60;70.00
10572;DHT22;5334;48.928;12.704;2022-07-25T11:58:48;34.70;69.90
10572;DHT22;5334;48.928;12.704;2022-07-25T12:01:15;34.50;71.10
10572;DHT22;5334;48.928;12.704;2022-07-25T12:03:41;34.70;69.50
10572;DHT22;5334;48.928;12.704;2022-07-25T12:06:11;34.90;69.50
10572;DHT22;5334;48.928;12.704;2022-07-25T12:11:21;35.70;67.10
10572;DHT22;5334;48.928;12.704;2022-07-25T12:13:48;35.80;67.30
10572;DHT22;5334;48.928;12.704;2022-07-25T12:16:15;36.30;66.30
10572;DHT22;5334;48.928;12.704;2022-07-25T12:18:41;36.60;66.70
10572;DHT22;5334;48.928;12.704;2022-07-25T12:21:07;36.70;63.00
10572;DHT22;5334;48.928;12.704;2022-07-25T12:23:33;37.10;62.60
10572;DHT22;5334;48.928;12.704;2022-07-25T12:28:25;37.80;61.10
10572;DHT22;5334;48.928;12.704;2022-07-25T12:30:52;37.70;61.30
10572;DHT22;5334;48.928;12.704;2022-07-25T12:33:18;37.80;60.90
10572;DHT22;5334;48.928;12.704;2022-07-25T12:35:44;37.60;61.10
10572;DHT22;5334;48.928;12.704;2022-07-25T12:38:10;37.30;61.30
10572;DHT22;5334;48.928;12.704;2022-07-25T12:40:36;37.10;60.20
10572;DHT22;5334;48.928;12.704;2022-07-25T12:43:05;36.70;59.90
10572;DHT22;5334;48.928;12.704;2022-07-25T12:45:31;36.70;60.70
10572;DHT22;5334;48.928;12.704;2022-07-25T12:47:56;37.00;60.80
10572;DHT22;5334;48.928;12.704;2022-07-25T12:50:22;37.20;60.80
10572;DHT22;5334;48.928;12.704;2022-07-25T12:52:50;37.00;60.60
10572;DHT22;5334;48.928;12.704;2022-07-25T12:55:18;37.00;60.00
10572;DHT22;5334;48.928;12.704;2022-07-25T12:57:44;37.40;59.90
10572;DHT22;5334;48.928;12.704;2022-07-25T13:00:13;37.80;59.30
10572;DHT22;5334;48.928;12.704;2022-07-25T13:02:39;38.50;58.30
10572;DHT22;5334;48.928;12.704;2022-07-25T13:05:05;38.70;58.20
10572;DHT22;5334;48.928;12.704;2022-07-25T13:07:32;38.60;55.80
10572;DHT22;5334;48.928;12.704;2022-07-25T13:09:59;38.50;56.60
10572;DHT22;5334;48.928;12.704;2022-07-25T13:12:24;38.40;56.00
10572;DHT22;5334;48.928;12.704;2022-07-25T13:14:51;37.70;56.30
10572;DHT22;5334;48.928;12.704;2022-07-25T13:17:16;37.50;57.10
10572;DHT22;5334;48.928;12.704;2022-07-25T13:19:42;37.50;57.10
10572;DHT22;5334;48.928;12.704;2022-07-25T13:22:08;37.50;55.80
10572;DHT22;5334;48.928;12.704;2022-07-25T13:24:34;37.80;57.90
10572;DHT22;5334;48.928;12.704;2022-07-25T13:27:06;38.30;58.30
10572;DHT22;5334;48.928;12.704;2022-07-25T13:29:32;38.20;56.80
10572;DHT22;5334;48.928;12.704;2022-07-25T13:31:58;38.20;56.90
10572;DHT22;5334;48.928;12.704;2022-07-25T13:34:24;37.80;57.30
10572;DHT22;5334;48.928;12.704;2022-07-25T13:36:50;37.60;57.30
10572;DHT22;5334;48.928;12.704;2022-07-25T13:39:15;37.40;57.00
10572;DHT22;5334;48.928;12.704;2022-07-25T13:41:41;37.40;57.20
10572;DHT22;5334;48.928;12.704;2022-07-25T13:44:07;37.70;57.70
10572;DHT22;5334;48.928;12.704;2022-07-25T13:46:33;38.00;57.20
10572;DHT22;5334;48.928;12.704;2022-07-25T13:48:59;38.10;55.70
10572;DHT22;5334;48.928;12.704;2022-07-25T13:51:25;38.10;55.90
10572;DHT22;5334;48.928;12.704;2022-07-25T13:53:50;38.30;56.00
10572;DHT22;5334;48.928;12.704;2022-07-25T13:56:16;38.70;55.00
10572;DHT22;5334;48.928;12.704;2022-07-25T13:58:42;38.60;54.20
10572;DHT22;5334;48.928;12.704;2022-07-25T14:01:08;38.30;54.40
10572;DHT22;5334;48.928;12.704;2022-07-25T14:03:35;38.70;55.30
10572;DHT22;5334;48.928;12.704;2022-07-25T14:06:02;39.00;53.80
10572;DHT22;5334;48.928;12.704;2022-07-25T14:08:28;38.90;53.60
10572;DHT22;5334;48.928;12.704;2022-07-25T14:10:54;38.50;54.20
10572;DHT22;5334;48.928;12.704;2022-07-25T14:15:46;38.60;53.20
10572;DHT22;5334;48.928;12.704;2022-07-25T14:18:11;38.70;53.40
10572;DHT22;5334;48.928;12.704;2022-07-25T14:20:37;38.80;53.10
10572;DHT22;5334;48.928;12.704;2022-07-25T14:23:03;38.80;53.00
10572;DHT22;5334;48.928;12.704;2022-07-25T14:25:28;38.80;52.50
10572;DHT22;5334;48.928;12.704;2022-07-25T14:27:54;38.50;52.90
10572;DHT22;5334;48.928;12.704;2022-07-25T14:30:20;38.50;53.80
10572;DHT22;5334;48.928;12.704;2022-07-25T14:32:46;38.30;51.30
10572;DHT22;5334;48.928;12.704;2022-07-25T14:35:11;38.10;53.20
10572;DHT22;5334;48.928;12.704;2022-07-25T14:37:37;37.90;52.20
10572;DHT22;5334;48.928;12.704;2022-07-25T14:40:04;37.80;51.70
10572;DHT22;5334;48.928;12.704;2022-07-25T14:42:30;38.00;51.50
10572;DHT22;5334;48.928;12.704;2022-07-25T14:44:56;38.30;51.00
10572;DHT22;5334;48.928;12.704;2022-07-25T14:47:21;38.80;53.40
10572;DHT22;5334;48.928;12.704;2022-07-25T14:49:47;39.10;48.50
10572;DHT22;5334;48.928;12.704;2022-07-25T14:52:13;39.20;47.50
10572;DHT22;5334;48.928;12.704;2022-07-25T14:54:40;39.10;46.80
10572;DHT22;5334;48.928;12.704;2022-07-25T14:57:07;38.40;44.00
10572;DHT22;5334;48.928;12.704;2022-07-25T14:59:33;38.00;44.50
10572;DHT22;5334;48.928;12.704;2022-07-25T15:01:58;37.40;45.00
10572;DHT22;5334;48.928;12.704;2022-07-25T15:04:24;37.30;46.40
10572;DHT22;5334;48.928;12.704;2022-07-25T15:06:51;37.50;46.40
10572;DHT22;5334;48.928;12.704;2022-07-25T15:09:18;37.70;45.50
10572;DHT22;5334;48.928;12.704;2022-07-25T15:11:44;37.70;45.90
10572;DHT22;5334;48.928;12.704;2022-07-25T15:14:09;37.40;45.30
10572;DHT22;5334;48.928;12.704;2022-07-25T15:16:37;37.20;47.00
10572;DHT22;5334;48.928;12.704;2022-07-25T15:19:03;37.20;46.70
10572;DHT22;5334;48.928;12.704;2022-07-25T15:21:32;37.30;46.80
10572;DHT22;5334;48.928;12.704;2022-07-25T15:23:57;36.90;46.90
10572;DHT22;5334;48.928;12.704;2022-07-25T15:26:24;36.90;46.70
10572;DHT22;5334;48.928;12.704;2022-07-25T15:28:50;37.10;48.30
10572;DHT22;5334;48.928;12.704;2022-07-25T15:31:15;37.00;47.30
10572;DHT22;5334;48.928;12.704;2022-07-25T15:33:41;37.00;46.60
10572;DHT22;5334;48.928;12.704;2022-07-25T15:36:07;37.00;45.90
10572;DHT22;5334;48.928;12.704;2022-07-25T15:38:33;36.90;46.30
10572;DHT22;5334;48.928;12.704;2022-07-25T15:40:59;36.90;46.60
10572;DHT22;5334;48.928;12.704;2022-07-25T15:43:25;36.90;47.20
10572;DHT22;5334;48.928;12.704;2022-07-25T15:45:51;36.70;45.30
10572;DHT22;5334;48.928;12.704;2022-07-25T15:48:17;36.60;46.10
10572;DHT22;5334;48.928;12.704;2022-07-25T15:50:46;36.60;45.90
10572;DHT22;5334;48.928;12.704;2022-07-25T15:53:12;36.70;46.90
10572;DHT22;5334;48.928;12.704;2022-07-25T15:55:39;36.70;45.80
10572;DHT22;5334;48.928;12.704;2022-07-25T15:58:05;36.70;45.70